createdAt,value
2018-02-20T00:02:01.043Z,47.84
2018-02-20T00:04:29.326Z,46.30
2018-02-20T00:06:57.574Z,43.78
2018-02-20T00:09:25.854Z,43.10
2018-02-20T00:11:54.145Z,51.08
2018-02-20T00:14:22.403Z,43.52
2018-02-20T00:16:51.590Z,44.06
2018-02-20T00:19:19.847Z,46.44
2018-02-20T00:21:48.136Z,45.44
2018-02-20T00:24:16.550Z,45.64
2018-02-20T00:26:44.842Z,52.22
2018-02-20T00:29:13.102Z,45.10
2018-02-20T00:31:41.371Z,44.00
2018-02-20T00:34:09.675Z,46.36
2018-02-20T00:36:37.945Z,40.86
2018-02-20T00:39:07.035Z,49.78
2018-02-20T00:41:35.345Z,49.08
2018-02-20T00:44:03.620Z,48.00
2018-02-20T00:46:31.885Z,48.02
2018-02-20T00:49:00.179Z,47.30
2018-02-20T00:51:28.435Z,41.44
2018-02-20T00:53:56.699Z,46.44
2018-02-20T00:56:24.991Z,52.08
2018-02-20T00:58:53.242Z,51.08
2018-02-20T01:01:21.540Z,51.70
2018-02-20T01:03:49.799Z,59.50
2018-02-20T01:06:18.104Z,55.32
2018-02-20T01:08:46.371Z,49.70
2018-02-20T01:11:14.630Z,48.42
2018-02-20T01:13:42.927Z,46.90
2018-02-20T01:16:11.191Z,44.78
2018-02-20T01:18:39.485Z,45.86
2018-02-20T01:21:07.755Z,52.46
2018-02-20T01:23:37.171Z,51.56
2018-02-20T01:26:06.340Z,43.58
2018-02-20T01:28:35.714Z,41.86
2018-02-20T01:31:03.974Z,49.96
2018-02-20T01:33:32.234Z,43.88
2018-02-20T01:36:00.541Z,49.54
2018-02-20T01:38:28.802Z,47.92
2018-02-20T01:40:57.091Z,51.32
2018-02-20T01:43:25.348Z,42.06
2018-02-20T01:45:52.868Z,55.96
2018-02-20T01:48:21.131Z,46.98
2018-02-20T01:51:01.210Z,40.58
2018-02-20T01:53:29.463Z,44.60
2018-02-20T01:55:57.730Z,50.38
2018-02-20T01:58:26.014Z,46.08
2018-02-20T02:00:54.287Z,46.46
2018-02-20T02:03:22.583Z,58.76
2018-02-20T02:05:50.897Z,49.68
2018-02-20T02:08:19.163Z,50.54
2018-02-20T02:10:47.416Z,47.26
2018-02-20T02:13:15.691Z,46.14
2018-02-20T02:15:43.986Z,45.26
2018-02-20T02:18:12.230Z,49.12
2018-02-20T02:20:40.500Z,48.46
2018-02-20T02:23:08.796Z,50.50
2018-02-20T02:25:37.057Z,44.82
2018-02-20T02:28:05.322Z,54.28
2018-02-20T02:30:33.610Z,47.48
2018-02-20T02:33:01.884Z,59.86
2018-02-20T02:35:30.152Z,51.80
2018-02-20T02:37:58.449Z,50.54
2018-02-20T02:40:26.717Z,43.12
2018-02-20T02:42:55.019Z,48.68
2018-02-20T02:45:23.283Z,48.22
2018-02-20T02:47:50.804Z,51.96
2018-02-20T02:50:19.064Z,55.18
2018-02-20T02:52:47.355Z,47.52
2018-02-20T02:55:14.851Z,50.62
2018-02-20T02:57:43.139Z,50.92
2018-02-20T03:00:11.399Z,47.60
2018-02-20T03:02:39.679Z,53.18
2018-02-20T03:05:07.948Z,47.02
2018-02-20T03:07:35.846Z,50.62
2018-02-20T03:10:05.315Z,51.40
2018-02-20T03:12:33.611Z,48.16
2018-02-20T03:15:01.928Z,43.92
2018-02-20T03:17:30.182Z,46.46
2018-02-20T03:19:58.434Z,49.98
2018-02-20T03:22:26.731Z,45.16
2018-02-20T03:24:55.041Z,44.50
2018-02-20T03:27:23.306Z,47.00
2018-02-20T03:29:51.576Z,54.96
2018-02-20T03:32:19.857Z,49.40
2018-02-20T03:34:48.142Z,45.64
2018-02-20T03:37:16.403Z,56.14
2018-02-20T03:39:44.690Z,46.45
2018-02-20T03:42:12.974Z,51.94
2018-02-20T03:44:41.234Z,42.97
2018-02-20T03:47:09.526Z,49.46
2018-02-20T03:49:37.787Z,50.38
2018-02-20T03:52:06.782Z,54.90
2018-02-20T03:54:36.099Z,56.60
2018-02-20T03:57:04.401Z,42.42
2018-02-20T03:59:32.704Z,53.40
2018-02-20T04:02:00.973Z,49.40
2018-02-20T04:04:29.262Z,53.96
2018-02-20T04:06:57.554Z,48.94
2018-02-20T04:09:25.817Z,62.58
2018-02-20T04:11:54.092Z,60.93
2018-02-20T04:14:22.392Z,56.93
2018-02-20T04:16:50.651Z,52.45
2018-02-20T04:19:18.946Z,58.63
2018-02-20T04:21:47.223Z,57.07
2018-02-20T04:24:15.480Z,51.65
2018-02-20T04:26:43.766Z,52.30
2018-02-20T04:29:12.054Z,53.77
2018-02-20T04:31:40.348Z,55.60
2018-02-20T04:34:07.842Z,59.58
2018-02-20T04:36:37.408Z,67.23
2018-02-20T04:39:06.422Z,59.67
2018-02-20T04:41:35.742Z,51.70
2018-02-20T04:44:04.006Z,48.72
2018-02-20T04:46:36.392Z,51.42
2018-02-20T04:49:05.318Z,51.43
2018-02-20T04:51:33.611Z,42.30
2018-02-20T04:54:01.893Z,48.95
2018-02-20T04:56:30.158Z,47.90
2018-02-20T04:58:58.450Z,53.80
2018-02-20T05:01:26.742Z,40.28
2018-02-20T05:03:55.046Z,51.22
2018-02-20T05:06:23.303Z,58.27
2018-02-20T05:08:51.561Z,48.22
2018-02-20T05:11:19.854Z,53.77
2018-02-20T05:13:48.117Z,49.00
2018-02-20T05:16:16.398Z,48.25
2018-02-20T05:18:44.660Z,50.13
2018-02-20T05:21:12.944Z,47.27
2018-02-20T05:23:41.227Z,61.93
2018-02-20T05:26:08.753Z,47.65
2018-02-20T05:28:37.050Z,51.08
2018-02-20T05:31:05.326Z,52.05
2018-02-20T05:33:33.617Z,51.36
2018-02-20T05:36:01.883Z,46.87
2018-02-20T05:38:30.145Z,60.33
2018-02-20T05:40:57.665Z,50.93
2018-02-20T05:43:25.935Z,57.22
2018-02-20T05:45:53.466Z,64.32
2018-02-20T05:48:21.725Z,55.95
2018-02-20T05:50:49.983Z,48.52
2018-02-20T05:53:18.273Z,53.60
2018-02-20T05:55:46.526Z,55.28
2018-02-20T05:58:14.845Z,55.52
2018-02-20T06:00:43.115Z,51.52
2018-02-20T06:03:11.379Z,56.70
2018-02-20T06:05:39.683Z,58.98
2018-02-20T06:08:07.946Z,61.32
2018-02-20T06:10:36.657Z,60.70
2018-02-20T06:13:05.974Z,52.32
2018-02-20T06:15:34.955Z,50.12
2018-02-20T06:18:03.246Z,54.48
2018-02-20T06:20:31.543Z,57.88
2018-02-20T06:22:59.811Z,54.28
2018-02-20T06:25:28.118Z,51.43
2018-02-20T06:27:56.378Z,53.83
2018-02-20T06:30:24.626Z,54.22
2018-02-20T06:32:52.924Z,57.60
2018-02-20T06:35:21.184Z,53.13
2018-02-20T06:37:49.481Z,48.40
2018-02-20T06:40:17.763Z,57.43
2018-02-20T06:42:46.064Z,65.57
2018-02-20T06:45:14.323Z,63.27
2018-02-20T06:47:42.619Z,54.68
2018-02-20T06:50:10.880Z,54.62
2018-02-20T06:52:39.170Z,52.55
2018-02-20T06:55:07.471Z,61.53
2018-02-20T06:57:36.881Z,68.05
2018-02-20T07:00:05.995Z,56.53
2018-02-20T07:02:35.083Z,76.12
2018-02-20T07:05:03.377Z,63.10
2018-02-20T07:07:31.635Z,55.87
2018-02-20T07:09:59.931Z,64.32
2018-02-20T07:12:28.223Z,58.02
2018-02-20T07:14:56.518Z,57.08
2018-02-20T07:17:24.770Z,63.65
2018-02-20T07:19:53.067Z,60.77
2018-02-20T07:22:21.368Z,68.88
2018-02-20T07:24:49.679Z,63.53
2018-02-20T07:27:17.934Z,62.60
2018-02-20T07:29:46.221Z,60.93
2018-02-20T07:32:14.521Z,61.83
2018-02-20T07:34:42.802Z,53.58
2018-02-20T07:37:11.088Z,59.22
2018-02-20T07:39:39.342Z,70.15
2018-02-20T07:42:07.633Z,71.77
2018-02-20T07:44:36.789Z,73.13
2018-02-20T07:47:05.866Z,62.13
2018-02-20T07:49:34.959Z,51.55
2018-02-20T07:52:03.222Z,72.45
2018-02-20T07:54:31.476Z,57.07
2018-02-20T07:56:59.758Z,61.97
2018-02-20T07:59:28.009Z,65.42
2018-02-20T08:01:56.301Z,59.53
2018-02-20T08:04:24.550Z,63.18
2018-02-20T08:06:52.845Z,61.77
2018-02-20T08:09:21.115Z,62.08
2018-02-20T08:11:49.367Z,52.78
2018-02-20T08:14:17.657Z,64.02
2018-02-20T08:16:52.755Z,63.55
2018-02-20T08:19:21.047Z,57.55
2018-02-20T08:21:49.351Z,53.95
2018-02-20T08:24:17.606Z,52.73
2018-02-20T08:26:48.147Z,58.85
2018-02-20T08:29:16.440Z,64.77
2018-02-20T08:31:44.060Z,58.25
2018-02-20T08:34:12.318Z,65.48
2018-02-20T08:36:40.578Z,57.87
2018-02-20T08:39:08.880Z,55.25
2018-02-20T08:41:37.147Z,66.50
2018-02-20T08:44:05.438Z,59.98
2018-02-20T08:46:33.702Z,61.25
2018-02-20T08:49:01.997Z,64.03
2018-02-20T08:51:30.254Z,54.73
2018-02-20T08:53:58.514Z,63.58
2018-02-20T08:56:26.812Z,60.27
2018-02-20T08:58:55.101Z,60.42
2018-02-20T09:01:23.387Z,62.33
2018-02-20T09:03:51.677Z,71.68
2018-02-20T09:06:19.974Z,69.86
2018-02-20T09:08:48.295Z,61.80
2018-02-20T09:11:16.562Z,64.10
2018-02-20T09:13:44.810Z,51.84
2018-02-20T09:16:13.109Z,66.32
2018-02-20T09:18:41.370Z,60.10
2018-02-20T09:21:09.638Z,61.36
2018-02-20T09:23:37.926Z,63.80
2018-02-20T09:26:12.156Z,64.18
2018-02-20T09:28:40.441Z,66.92
2018-02-20T09:31:08.731Z,73.00
2018-02-20T09:33:37.483Z,66.42
2018-02-20T09:36:06.673Z,64.62
2018-02-20T09:38:36.103Z,76.32
2018-02-20T09:41:04.394Z,71.08
2018-02-20T09:43:32.651Z,76.84
2018-02-20T09:46:00.923Z,72.54
2018-02-20T09:48:29.220Z,71.23
2018-02-20T09:50:56.739Z,83.80
2018-02-20T09:53:24.981Z,74.76
2018-02-20T09:55:53.363Z,74.88
2018-02-20T09:58:21.647Z,74.08
2018-02-20T10:00:49.907Z,86.58
2018-02-20T10:03:18.195Z,87.94
2018-02-20T10:05:46.441Z,86.22
2018-02-20T10:08:14.707Z,81.14
2018-02-20T10:10:42.978Z,76.32
2018-02-20T10:13:11.271Z,74.88
2018-02-20T10:15:39.526Z,83.98
2018-02-20T10:18:07.820Z,73.34
2018-02-20T10:20:37.214Z,87.78
2018-02-20T10:23:06.002Z,94.22
2018-02-20T10:25:34.978Z,75.30
2018-02-20T10:28:03.253Z,82.12
2018-02-20T10:30:31.510Z,82.20
2018-02-20T10:32:59.806Z,79.94
2018-02-20T10:35:28.055Z,67.08
2018-02-20T10:37:56.783Z,122.20
2018-02-20T10:40:25.060Z,153.76
2018-02-20T10:42:53.314Z,82.68
2018-02-20T10:45:21.597Z,74.64
2018-02-20T10:47:49.859Z,69.00
2018-02-20T10:50:18.128Z,68.52
2018-02-20T10:52:46.411Z,74.88
2018-02-20T10:55:14.680Z,75.16
2018-02-20T10:57:42.976Z,71.92
2018-02-20T11:00:11.240Z,67.14
2018-02-20T11:02:39.538Z,62.28
2018-02-20T11:05:07.803Z,64.90
2018-02-20T11:07:36.795Z,72.72
2018-02-20T11:10:05.708Z,61.72
2018-02-20T11:12:33.987Z,59.30
2018-02-20T11:15:02.257Z,63.54
2018-02-20T11:17:30.510Z,63.56
2018-02-20T11:19:58.782Z,64.70
2018-02-20T11:22:27.039Z,56.82
2018-02-20T11:24:54.534Z,51.48
2018-02-20T11:27:22.797Z,55.98
2018-02-20T11:29:51.060Z,52.80
2018-02-20T11:32:19.336Z,58.26
2018-02-20T11:34:47.607Z,44.76
2018-02-20T11:37:15.854Z,44.56
2018-02-20T11:39:44.127Z,45.04
2018-02-20T11:42:12.387Z,45.54
2018-02-20T11:44:40.685Z,49.68
2018-02-20T11:47:08.937Z,48.16
2018-02-20T11:49:37.187Z,46.94
2018-02-20T11:52:05.839Z,45.36
2018-02-20T11:54:35.412Z,46.34
2018-02-20T11:57:03.686Z,50.78
2018-02-20T11:59:31.952Z,45.84
2018-02-20T12:02:00.222Z,47.78
2018-02-20T12:04:28.494Z,50.00
2018-02-20T12:06:56.745Z,49.08
2018-02-20T12:09:25.042Z,42.80
2018-02-20T12:11:53.330Z,40.48
2018-02-20T12:14:21.591Z,41.14
2018-02-20T12:16:49.843Z,43.14
2018-02-20T12:19:18.140Z,44.54
2018-02-20T12:21:46.395Z,39.82
2018-02-20T12:24:13.918Z,39.68
2018-02-20T12:26:42.178Z,43.28
2018-02-20T12:29:10.474Z,44.04
2018-02-20T12:31:38.747Z,35.94
2018-02-20T12:34:07.042Z,37.26
2018-02-20T12:36:35.293Z,46.46
2018-02-20T12:39:03.554Z,37.94
2018-02-20T12:41:31.842Z,38.12
2018-02-20T12:44:00.100Z,42.18
2018-02-20T12:46:28.377Z,33.04
2018-02-20T12:48:56.635Z,37.54
2018-02-20T12:51:24.911Z,38.78
2018-02-20T12:53:53.183Z,42.84
2018-02-20T12:56:21.447Z,39.24
2018-02-20T12:58:49.735Z,36.52
2018-02-20T13:01:17.986Z,41.12
2018-02-20T13:03:46.262Z,35.24
2018-02-20T13:06:14.516Z,38.48
2018-02-20T13:08:42.819Z,35.04
2018-02-20T13:11:11.078Z,40.04
2018-02-20T13:13:39.334Z,42.56
2018-02-20T13:16:07.619Z,47.14
2018-02-20T13:18:37.230Z,31.18
2018-02-20T13:21:05.985Z,44.86
2018-02-20T13:23:35.060Z,33.00
2018-02-20T13:26:03.350Z,37.30
2018-02-20T13:28:31.601Z,38.64
2018-02-20T13:30:59.868Z,35.62
2018-02-20T13:33:28.142Z,37.66
2018-02-20T13:35:56.405Z,41.72
2018-02-20T13:38:24.687Z,37.26
2018-02-20T13:40:52.975Z,38.76
2018-02-20T13:43:21.222Z,41.34
2018-02-20T13:45:49.470Z,41.78
2018-02-20T13:48:17.734Z,42.94
2018-02-20T13:50:45.991Z,44.20
2018-02-20T13:53:14.257Z,40.02
2018-02-20T13:55:42.519Z,36.64
2018-02-20T13:58:13.942Z,30.70
2018-02-20T14:00:42.206Z,27.72
2018-02-20T14:03:10.470Z,28.80
2018-02-20T14:05:37.969Z,27.68
2018-02-20T14:08:07.182Z,30.60
2018-02-20T14:10:36.696Z,32.72
2018-02-20T14:13:05.547Z,33.46
2018-02-20T14:15:33.810Z,53.24
2018-02-20T14:18:02.090Z,32.52
2018-02-20T14:20:30.346Z,35.30
2018-02-20T14:22:58.640Z,37.30
2018-02-20T14:25:26.917Z,37.28
2018-02-20T14:27:55.200Z,41.88
2018-02-20T14:30:23.474Z,41.02
2018-02-20T14:32:51.734Z,32.30
2018-02-20T14:35:20.010Z,36.96
2018-02-20T14:37:48.257Z,38.98
2018-02-20T14:40:16.561Z,33.80
2018-02-20T14:42:44.814Z,35.96
2018-02-20T14:45:13.074Z,38.22
2018-02-20T14:47:41.354Z,39.94
2018-02-20T14:50:09.621Z,35.00
2018-02-20T14:52:37.122Z,37.80
2018-02-20T14:55:05.365Z,36.80
2018-02-20T14:57:33.642Z,43.88
2018-02-20T15:00:01.899Z,38.80
2018-02-20T15:02:30.165Z,37.10
2018-02-20T15:04:58.427Z,45.46
2018-02-20T15:07:26.738Z,35.58
2018-02-20T15:09:55.000Z,41.36
2018-02-20T15:12:23.263Z,40.30
2018-02-20T15:14:51.549Z,41.14
2018-02-20T15:17:19.823Z,41.02
2018-02-20T15:19:48.087Z,35.44
2018-02-20T15:22:16.362Z,39.04
2018-02-20T15:24:44.650Z,43.60
2018-02-20T15:27:12.930Z,41.94
2018-02-20T15:29:41.183Z,40.96
2018-02-20T15:32:09.462Z,41.38
2018-02-20T15:34:37.710Z,41.78
2018-02-20T15:37:06.699Z,46.28
2018-02-20T15:39:35.854Z,37.66
2018-02-20T15:42:05.262Z,45.68
2018-02-20T15:44:33.527Z,39.76
2018-02-20T15:47:01.818Z,41.04
2018-02-20T15:49:30.071Z,40.94
2018-02-20T15:51:58.328Z,46.64
2018-02-20T15:54:29.947Z,42.86
2018-02-20T15:56:58.225Z,43.10
2018-02-20T15:59:26.479Z,42.42
2018-02-20T16:01:54.767Z,48.10
2018-02-20T16:04:23.024Z,40.92
2018-02-20T16:06:51.295Z,36.50
2018-02-20T16:09:19.586Z,49.12
2018-02-20T16:11:47.853Z,50.38
2018-02-20T16:14:17.538Z,38.30
2018-02-20T16:16:45.830Z,46.72
2018-02-20T16:19:14.084Z,40.12
2018-02-20T16:21:42.383Z,45.40
2018-02-20T16:24:10.647Z,38.86
2018-02-20T16:26:38.938Z,44.06
2018-02-20T16:29:07.234Z,42.66
2018-02-20T16:31:36.699Z,44.70
2018-02-20T16:34:05.971Z,38.84
2018-02-20T16:36:35.045Z,40.84
2018-02-20T16:39:03.327Z,39.16
2018-02-20T16:41:31.615Z,50.04
2018-02-20T16:43:59.878Z,43.96
2018-02-20T16:46:28.155Z,44.14
2018-02-20T16:48:56.431Z,38.02
2018-02-20T16:51:24.699Z,47.38
2018-02-20T16:53:52.950Z,47.26
2018-02-20T16:56:21.233Z,44.08
2018-02-20T16:58:49.483Z,40.28
2018-02-20T17:01:17.775Z,42.64
2018-02-20T17:03:46.031Z,41.18
2018-02-20T17:06:14.341Z,45.10
2018-02-20T17:08:42.686Z,41.42
2018-02-20T17:11:10.974Z,43.48
2018-02-20T17:13:39.239Z,41.18
2018-02-20T17:16:07.534Z,51.10
2018-02-20T17:18:36.950Z,60.94
2018-02-20T17:21:04.447Z,54.88
2018-02-20T17:23:32.754Z,58.96
2018-02-20T17:26:01.001Z,55.66
2018-02-20T17:28:29.262Z,48.40
2018-02-20T17:30:57.659Z,48.24
2018-02-20T17:33:25.922Z,45.58
2018-02-20T17:35:54.178Z,38.52
2018-02-20T17:38:22.484Z,49.40
2018-02-20T17:40:50.738Z,42.24
2018-02-20T17:43:18.986Z,46.44
2018-02-20T17:45:47.280Z,42.76
2018-02-20T17:48:15.546Z,47.46
2018-02-20T17:50:43.074Z,41.10
2018-02-20T17:53:11.368Z,47.22
2018-02-20T17:55:39.640Z,45.50
2018-02-20T17:58:07.930Z,40.18
2018-02-20T18:00:37.005Z,46.82
2018-02-20T18:03:05.682Z,53.32
2018-02-20T18:05:33.938Z,59.08
2018-02-20T18:08:02.226Z,39.54
2018-02-20T18:10:30.483Z,49.60
2018-02-20T18:12:58.751Z,48.64
2018-02-20T18:15:27.037Z,42.96
2018-02-20T18:17:55.290Z,50.34
2018-02-20T18:20:23.582Z,47.42
2018-02-20T18:22:51.839Z,43.38
2018-02-20T18:25:20.126Z,48.18
2018-02-20T18:27:48.382Z,43.36
2018-02-20T18:30:16.682Z,48.02
2018-02-20T18:32:44.967Z,43.08
2018-02-20T18:35:13.218Z,47.42
2018-02-20T18:37:40.743Z,52.72
2018-02-20T18:40:08.994Z,44.98
2018-02-20T18:42:40.319Z,39.74
2018-02-20T18:45:08.581Z,43.72
2018-02-20T18:47:36.958Z,48.76
2018-02-20T18:50:05.782Z,43.02
2018-02-20T18:52:34.070Z,46.14
2018-02-20T18:55:02.323Z,56.70
2018-02-20T18:57:30.619Z,50.50
2018-02-20T18:59:58.878Z,57.26
2018-02-20T19:02:27.177Z,49.36
2018-02-20T19:04:55.443Z,52.48
2018-02-20T19:07:23.704Z,47.76
2018-02-20T19:09:51.994Z,49.80
2018-02-20T19:12:20.251Z,50.30
2018-02-20T19:14:48.539Z,46.70
2018-02-20T19:17:18.822Z,52.50
2018-02-20T19:19:47.078Z,47.44
2018-02-20T19:22:15.358Z,52.52
2018-02-20T19:24:43.662Z,50.88
2018-02-20T19:27:11.965Z,50.48
2018-02-20T19:29:40.235Z,46.60
2018-02-20T19:32:08.487Z,55.72
2018-02-20T19:34:36.796Z,59.35
2018-02-20T19:37:06.007Z,50.28
2018-02-20T19:39:34.991Z,55.94
2018-02-20T19:42:03.249Z,53.52
2018-02-20T19:44:31.527Z,60.86
2018-02-20T19:46:59.785Z,54.08
2018-02-20T19:49:28.055Z,53.44
2018-02-20T19:51:56.335Z,48.12
2018-02-20T19:54:24.630Z,60.00
2018-02-20T19:56:52.901Z,51.94
2018-02-20T19:59:21.166Z,52.82
2018-02-20T20:01:49.422Z,50.40
2018-02-20T20:04:17.699Z,57.64
2018-02-20T20:06:45.975Z,49.20
2018-02-20T20:09:14.268Z,53.00
2018-02-20T20:11:42.553Z,48.94
2018-02-20T20:14:10.805Z,53.36
2018-02-20T20:16:39.086Z,68.76
2018-02-20T20:19:07.351Z,59.80
2018-02-20T20:21:36.622Z,61.06
2018-02-20T20:24:04.114Z,57.02
2018-02-20T20:26:32.412Z,48.50
2018-02-20T20:29:00.673Z,56.72
2018-02-20T20:31:28.942Z,53.60
2018-02-20T20:33:57.206Z,61.62
2018-02-20T20:36:25.470Z,61.18
2018-02-20T20:38:53.748Z,63.46
2018-02-20T20:41:21.251Z,61.74
2018-02-20T20:43:49.517Z,65.00
2018-02-20T20:46:17.774Z,59.36
2018-02-20T20:48:46.082Z,64.00
2018-02-20T20:51:14.335Z,60.96
2018-02-20T20:53:42.620Z,54.58
2018-02-20T20:56:10.898Z,60.60
2018-02-20T20:58:39.147Z,54.24
2018-02-20T21:01:07.415Z,63.14
2018-02-20T21:03:36.692Z,63.66
2018-02-20T21:06:06.088Z,69.02
2018-02-20T21:08:35.117Z,59.43
2018-02-20T21:11:03.400Z,73.88
2018-02-20T21:13:31.686Z,68.70
2018-02-20T21:15:59.946Z,69.20
2018-02-20T21:18:28.222Z,60.33
2018-02-20T21:20:56.486Z,69.45
2018-02-20T21:23:24.757Z,67.88
2018-02-20T21:25:53.038Z,70.56
2018-02-20T21:28:21.293Z,68.53
2018-02-20T21:30:49.573Z,61.08
2018-02-20T21:33:17.835Z,75.32
2018-02-20T21:35:46.119Z,60.60
2018-02-20T21:38:14.386Z,62.68
2018-02-20T21:40:42.667Z,63.70
2018-02-20T21:43:10.940Z,72.13
2018-02-20T21:45:39.241Z,66.47
2018-02-20T21:48:07.499Z,74.58
2018-02-20T21:50:36.674Z,65.32
2018-02-20T21:53:04.834Z,73.16
2018-02-20T21:55:33.090Z,61.70
2018-02-20T21:58:01.391Z,72.36
2018-02-20T22:00:29.655Z,60.12
2018-02-20T22:02:57.912Z,68.10
2018-02-20T22:05:26.174Z,70.30
2018-02-20T22:07:54.423Z,58.16
2018-02-20T22:10:22.681Z,66.26
2018-02-20T22:12:50.942Z,69.16
2018-02-20T22:15:19.211Z,72.20
2018-02-20T22:17:47.482Z,58.08
2018-02-20T22:20:15.774Z,69.16
2018-02-20T22:22:43.277Z,72.50
2018-02-20T22:25:11.539Z,71.66
2018-02-20T22:27:39.802Z,62.82
2018-02-20T22:30:08.049Z,65.34
2018-02-20T22:32:37.013Z,71.36
2018-02-20T22:35:05.690Z,64.45
2018-02-20T22:37:33.954Z,69.78
2018-02-20T22:40:02.217Z,67.80
2018-02-20T22:42:30.506Z,69.20
2018-02-20T22:44:58.763Z,67.82
2018-02-20T22:47:27.027Z,63.50
2018-02-20T22:49:55.273Z,74.06
2018-02-20T22:52:23.559Z,69.74
2018-02-20T22:54:51.810Z,74.18
2018-02-20T22:57:20.097Z,77.88
2018-02-20T22:59:48.355Z,65.92
2018-02-20T23:02:16.632Z,72.26
2018-02-20T23:04:44.897Z,74.53
2018-02-20T23:07:13.186Z,80.28
2018-02-20T23:09:41.442Z,83.38
2018-02-20T23:12:09.722Z,73.47
2018-02-20T23:14:37.993Z,76.82
2018-02-20T23:17:07.170Z,64.10
2018-02-20T23:19:35.888Z,71.08
2018-02-20T23:22:04.776Z,82.18
2018-02-20T23:24:33.051Z,75.65
2018-02-20T23:27:01.314Z,84.73
2018-02-20T23:29:29.599Z,69.72
2018-02-20T23:31:57.875Z,74.70
2018-02-20T23:34:26.162Z,81.73
2018-02-20T23:36:54.422Z,75.17
2018-02-20T23:39:22.690Z,87.38
2018-02-20T23:41:50.954Z,80.40
2018-02-20T23:44:19.252Z,87.58
2018-02-20T23:46:47.514Z,87.80
2018-02-20T23:49:15.774Z,74.25
2018-02-20T23:51:43.291Z,75.17
2018-02-20T23:54:11.571Z,72.45
2018-02-20T23:56:39.058Z,89.27
2018-02-20T23:59:07.350Z,87.18
